Terminal Aerodrome Forecast
Issued by NWS

Home | Current Version | Previous Version | Text Only | Print | Product List | Glossary On
Versions: 1 2 3 4 5 6 7 8 9 10 11 12 13 14 15 16 17 18 19 20 21
000
FTUS43 KDMX 250118 AAA
TAFMCW
TAF AMD
KMCW 250118Z 2501/2524 02013G18KT P6SM -RA OVC010
     FM250500 03015G22KT 5SM BR VCSH BKN008 OVC015
     FM251500 04020G26KT P6SM OVC007
     FM251900 05015G24KT P6SM -SHRA OVC003=

USA.gov is the U.S. government's official web portal to all federal, state and local government web resources and services.